Time;durP1;ratioP1;P1;durP2;ratioP2;P2;SDS_P1;SDS_P2;PMS_P1;PMS_P2;Temp;Humidity;BMP_temperature;BMP_pressure;BME280_temperature;BME280_humidity;BME280_pressure;Samples;Min_cycle;Max_cycle;Signal;HPM_P1;HPM_P2
2021/12/28 00:00:23;;;;;;;;;;;;;;;18.96;45.51;98525.13;4934742;29;20014;-82
2021/12/28 00:02:50;;;;;;;;;;;;;;;19.03;45.41;98522.22;4935420;29;19915;-79
2021/12/28 00:05:15;;;;;;;;;;;;;;;19.03;45.31;98519.47;4937219;29;19926;-78
2021/12/28 00:07:41;;;;;;;;;;;;;;;19.04;45.29;98509.16;4942255;29;20297;-77
2021/12/28 00:10:07;;;;;;;;;;;;;;;19.04;45.22;98517.47;4935412;29;20046;-77
2021/12/28 00:12:35;;;;;;;;;;;;;;;19.04;45.31;98511.94;4934029;29;20077;-77
2021/12/28 00:15:48;;;;;;;;;;;;;;;19.01;45.50;98515.56;4935356;29;20289;-77
2021/12/28 00:17:59;;;;;;;;;;;;;;;19.03;45.41;98521.44;4940165;29;19921;-84
2021/12/28 00:20:34;;;;;;;;;;;;;;;18.97;45.61;98520.41;4954721;29;19969;-78
2021/12/28 00:23:01;;;;;;;;;;;;;;;19.01;45.69;98519.09;4944734;29;19914;-84
2021/12/28 00:25:26;;;;;;;;;;;;;;;19.08;45.65;98521.75;4945779;29;19937;-78
2021/12/28 00:27:52;;;;;;;;;;;;;;;19.12;45.63;98518.94;4942743;29;20366;-78
2021/12/28 00:30:18;;;;;;;;;;;;;;;19.10;45.54;98518.56;4943283;29;20515;-81
2021/12/28 00:32:46;;;;;;;;;;;;;;;19.20;45.43;98528.66;4921029;29;19915;-77
2021/12/28 00:35:11;;;;;;;;;;;;;;;19.19;45.34;98526.28;4952006;29;19918;-79
2021/12/28 00:37:37;;;;;;;;;;;;;;;19.19;45.51;98527.06;4945673;29;20013;-84
2021/12/28 00:40:03;;;;;;;;;;;;;;;19.23;45.55;98532.56;4943033;29;19930;-79
2021/12/28 00:42:29;;;;;;;;;;;;;;;19.23;45.54;98527.81;4935603;29;19914;-78
2021/12/28 00:44:54;;;;;;;;;;;;;;;19.31;45.38;98528.44;4935528;29;20280;-79
2021/12/28 00:47:19;;;;;;;;;;;;;;;19.28;45.39;98523.78;4935818;29;19914;-82
2021/12/28 00:49:45;;;;;;;;;;;;;;;19.35;45.28;98518.09;4935627;29;20009;-79
2021/12/28 00:52:10;;;;;;;;;;;;;;;19.30;45.44;98516.59;4935596;29;19921;-79
2021/12/28 00:54:35;;;;;;;;;;;;;;;19.32;45.26;98510.63;4935539;29;19915;-79
2021/12/28 00:57:02;;;;;;;;;;;;;;;19.35;45.32;98507.03;4935892;29;20017;-79
2021/12/28 00:59:28;;;;;;;;;;;;;;;19.37;45.26;98516.44;4946760;29;19930;-81
2021/12/28 01:01:54;;;;;;;;;;;;;;;19.39;45.35;98516.03;4947811;29;20293;-84
2021/12/28 01:04:20;;;;;;;;;;;;;;;19.38;45.20;98520.78;4945822;29;19915;-84
2021/12/28 01:06:45;;;;;;;;;;;;;;;19.39;45.07;98513.25;4945489;29;19915;-83
2021/12/28 01:09:12;;;;;;;;;;;;;;;19.40;45.05;98507.28;4944376;29;19922;-79
2021/12/28 01:11:37;;;;;;;;;;;;;;;19.38;45.19;98511.69;4943397;29;19961;-79
2021/12/28 01:14:03;;;;;;;;;;;;;;;19.40;45.20;98510.06;4932292;29;20005;-79
2021/12/28 01:16:29;;;;;;;;;;;;;;;19.43;45.28;98500.13;4936467;29;19915;-79
2021/12/28 01:18:55;;;;;;;;;;;;;;;19.40;45.26;98498.97;4938600;29;20413;-79
2021/12/28 01:21:20;;;;;;;;;;;;;;;19.44;45.10;98500.91;4938901;29;19922;-79
2021/12/28 01:23:45;;;;;;;;;;;;;;;19.36;45.03;98492.75;4938414;29;20281;-79
2021/12/28 01:26:11;;;;;;;;;;;;;;;19.43;45.13;98482.72;4938638;29;19919;-79
2021/12/28 01:28:36;;;;;;;;;;;;;;;19.47;45.13;98489.75;4936735;29;19962;-79
2021/12/28 01:31:02;;;;;;;;;;;;;;;19.46;45.16;98477.09;4938777;29;19914;-80
2021/12/28 01:33:28;;;;;;;;;;;;;;;19.43;45.17;98463.34;4938676;29;19925;-78
2021/12/28 01:35:54;;;;;;;;;;;;;;;19.43;44.99;98455.03;4938814;29;19910;-80
2021/12/28 01:38:19;;;;;;;;;;;;;;;19.50;44.70;98449.34;4938686;29;19921;-79
2021/12/28 01:40:45;;;;;;;;;;;;;;;19.29;44.82;98445.81;4938721;29;19918;-79
2021/12/28 01:43:15;;;;;;;;;;;;;;;19.34;44.74;98447.28;4938615;29;19922;-79
2021/12/28 01:45:40;;;;;;;;;;;;;;;19.16;45.28;98450.44;4938592;29;19962;-78
2021/12/28 01:48:06;;;;;;;;;;;;;;;19.28;44.86;98449.78;4938622;29;19961;-85
2021/12/28 01:50:32;;;;;;;;;;;;;;;19.23;45.00;98439.22;4938464;29;19914;-85
2021/12/28 01:52:58;;;;;;;;;;;;;;;19.37;44.58;98438.13;4938382;29;19946;-79
2021/12/28 01:55:23;;;;;;;;;;;;;;;19.28;44.77;98430.41;4938377;29;20009;-79
2021/12/28 01:57:49;;;;;;;;;;;;;;;19.17;44.93;98423.53;4938437;29;19915;-78
2021/12/28 02:00:15;;;;;;;;;;;;;;;18.99;45.49;98423.88;4938168;29;19921;-78
2021/12/28 02:02:40;;;;;;;;;;;;;;;18.98;45.51;98420.34;4938290;29;19915;-78
2021/12/28 02:05:06;;;;;;;;;;;;;;;18.88;45.70;98415.00;4938103;29;19914;-79
2021/12/28 02:07:31;;;;;;;;;;;;;;;18.89;45.58;98425.63;4920945;29;19961;-78
2021/12/28 02:09:56;;;;;;;;;;;;;;;18.73;46.00;98431.88;4938111;29;19927;-85
2021/12/28 02:12:22;;;;;;;;;;;;;;;18.72;46.07;98421.22;4939316;29;20353;-79
2021/12/28 02:14:48;;;;;;;;;;;;;;;18.68;46.25;98432.38;4943240;29;20393;-79
2021/12/28 02:17:14;;;;;;;;;;;;;;;18.74;46.21;98425.16;4938140;29;19965;-84
2021/12/28 02:19:39;;;;;;;;;;;;;;;18.80;45.90;98419.88;4920575;29;20428;-78
2021/12/28 02:22:05;;;;;;;;;;;;;;;18.68;46.40;98421.31;4937934;29;19914;-79
2021/12/28 02:24:30;;;;;;;;;;;;;;;18.57;46.86;98417.91;4937875;29;20333;-79
2021/12/28 02:26:56;;;;;;;;;;;;;;;18.65;46.45;98422.09;4938639;29;19923;-84
2021/12/28 02:29:21;;;;;;;;;;;;;;;18.60;46.59;98413.53;4927783;29;19918;-79
2021/12/28 02:31:49;;;;;;;;;;;;;;;18.52;46.81;98412.88;4947447;29;19918;-78
2021/12/28 02:34:15;;;;;;;;;;;;;;;18.68;46.55;98406.69;4950061;29;20382;-79
2021/12/28 02:36:40;;;;;;;;;;;;;;;18.63;46.44;98402.41;4928547;29;19925;-79
2021/12/28 02:39:06;;;;;;;;;;;;;;;18.67;46.45;98402.38;4947607;29;19949;-79
2021/12/28 02:41:31;;;;;;;;;;;;;;;18.54;46.77;98393.88;4952454;29;19972;-81
2021/12/28 02:44:02;;;;;;;;;;;;;;;18.57;46.76;98387.50;4939559;29;19918;-79
2021/12/28 02:46:27;;;;;;;;;;;;;;;18.60;46.73;98386.66;4956646;29;19925;-80
2021/12/28 02:48:53;;;;;;;;;;;;;;;18.48;47.08;98381.75;4956479;29;19914;-78
2021/12/28 02:51:18;;;;;;;;;;;;;;;18.55;46.89;98379.63;4956558;29;19918;-79
2021/12/28 02:53:44;;;;;;;;;;;;;;;18.64;46.65;98370.78;4956614;29;19921;-78
2021/12/28 02:56:10;;;;;;;;;;;;;;;18.63;46.55;98376.72;4956575;29;19921;-80
2021/12/28 02:58:38;;;;;;;;;;;;;;;18.66;46.78;98375.91;4956452;29;20285;-78
2021/12/28 03:01:06;;;;;;;;;;;;;;;18.60;46.71;98370.06;4956453;29;19914;-79
2021/12/28 03:03:33;;;;;;;;;;;;;;;18.60;46.81;98364.53;4956426;29;20043;-78
2021/12/28 03:05:59;;;;;;;;;;;;;;;18.61;46.92;98365.31;4956361;29;19921;-78
2021/12/28 03:08:25;;;;;;;;;;;;;;;18.64;46.56;98362.47;4956258;29;20525;-78
2021/12/28 03:10:51;;;;;;;;;;;;;;;18.56;46.84;98363.81;4956125;29;19969;-78
2021/12/28 03:13:21;;;;;;;;;;;;;;;18.56;46.77;98363.81;4956130;29;19930;-79
2021/12/28 03:15:47;;;;;;;;;;;;;;;18.57;46.65;98362.59;4956248;29;19915;-78
2021/12/28 03:18:12;;;;;;;;;;;;;;;18.39;47.31;98359.41;4938937;29;19914;-79
2021/12/28 03:20:38;;;;;;;;;;;;;;;18.38;47.33;98357.84;4956066;29;19914;-79
2021/12/28 03:23:03;;;;;;;;;;;;;;;18.46;47.09;98348.22;4956040;29;20325;-86
2021/12/28 03:25:29;;;;;;;;;;;;;;;18.56;46.84;98350.00;4956026;29;19915;-78
2021/12/28 03:27:55;;;;;;;;;;;;;;;18.50;46.92;98357.97;4955992;29;19918;-85
2021/12/28 03:30:20;;;;;;;;;;;;;;;18.43;47.13;98357.34;4955987;29;20312;-85
2021/12/28 03:32:46;;;;;;;;;;;;;;;18.41;47.17;98356.97;4955901;29;20281;-78
2021/12/28 03:35:12;;;;;;;;;;;;;;;18.46;47.27;98353.75;4955872;29;20060;-78
2021/12/28 03:37:38;;;;;;;;;;;;;;;18.38;47.56;98353.09;4938569;29;19926;-79
2021/12/28 03:40:05;;;;;;;;;;;;;;;18.46;47.29;98350.97;4955629;28;19914;-78
2021/12/28 03:42:30;;;;;;;;;;;;;;;18.57;46.96;98348.78;4955705;29;19914;-78
2021/12/28 03:44:56;;;;;;;;;;;;;;;18.34;47.45;98352.38;4955658;29;19920;-79
2021/12/28 03:47:21;;;;;;;;;;;;;;;18.36;47.59;98347.19;4955892;29;19920;-85
2021/12/28 03:49:47;;;;;;;;;;;;;;;18.38;47.35;98346.78;4955603;29;20337;-78
2021/12/28 03:52:12;;;;;;;;;;;;;;;18.09;48.29;98341.75;4955621;29;19931;-79
2021/12/28 03:54:38;;;;;;;;;;;;;;;18.34;47.53;98346.06;4955751;29;19946;-79
2021/12/28 03:57:04;;;;;;;;;;;;;;;18.34;47.47;98346.06;4955442;29;19922;-78
2021/12/28 03:59:30;;;;;;;;;;;;;;;18.19;47.94;98342.75;4955392;29;19964;-78
2021/12/28 04:01:55;;;;;;;;;;;;;;;18.15;47.96;98345.59;4955290;29;19925;-79
2021/12/28 04:04:21;;;;;;;;;;;;;;;18.16;48.07;98343.63;4955410;29;19921;-78
2021/12/28 04:06:46;;;;;;;;;;;;;;;18.20;47.89;98342.34;4955360;29;19914;-78
2021/12/28 04:09:12;;;;;;;;;;;;;;;18.08;48.23;98342.97;4955244;29;19937;-78
2021/12/28 04:11:39;;;;;;;;;;;;;;;18.14;48.25;98333.00;4954777;29;20004;-78
2021/12/28 04:14:05;;;;;;;;;;;;;;;18.00;48.55;98336.00;4929774;29;20063;-79
2021/12/28 04:16:31;;;;;;;;;;;;;;;17.98;48.64;98336.41;4916976;29;20002;-78
2021/12/28 04:18:57;;;;;;;;;;;;;;;17.90;48.68;98339.72;4916870;29;20022;-78
2021/12/28 04:21:22;;;;;;;;;;;;;;;17.94;48.74;98343.19;4917202;29;19962;-78
2021/12/28 04:23:48;;;;;;;;;;;;;;;18.22;47.99;98336.41;4916988;29;19957;-78
2021/12/28 04:26:14;;;;;;;;;;;;;;;18.10;48.48;98335.03;4916943;29;19915;-78
2021/12/28 04:28:39;;;;;;;;;;;;;;;18.16;48.21;98335.34;4916855;29;20013;-78
2021/12/28 04:31:05;;;;;;;;;;;;;;;17.95;48.44;98328.97;4916865;29;20005;-84
2021/12/28 04:33:30;;;;;;;;;;;;;;;17.82;48.83;98329.97;4916916;29;20386;-85
2021/12/28 04:35:56;;;;;;;;;;;;;;;17.98;48.33;98343.91;4916807;29;19915;-79
2021/12/28 04:38:21;;;;;;;;;;;;;;;18.02;48.40;98339.91;4915495;29;19962;-78
2021/12/28 04:40:47;;;;;;;;;;;;;;;17.91;48.72;98347.59;4916756;29;19919;-79
2021/12/28 04:43:13;;;;;;;;;;;;;;;17.96;48.52;98336.03;4916713;29;19919;-78
2021/12/28 04:45:39;;;;;;;;;;;;;;;17.91;48.84;98336.53;4916745;29;20009;-79
2021/12/28 04:48:05;;;;;;;;;;;;;;;17.94;48.59;98345.97;4916743;29;20305;-79
2021/12/28 04:50:37;;;;;;;;;;;;;;;18.26;47.70;98335.13;4916979;29;19915;-78
2021/12/28 04:53:08;;;;;;;;;;;;;;;18.12;48.37;98345.66;4913233;29;19915;-78
2021/12/28 04:55:33;;;;;;;;;;;;;;;18.00;48.52;98344.28;4920578;29;20362;-79
2021/12/28 04:57:59;;;;;;;;;;;;;;;18.12;47.99;98335.38;4920459;29;19944;-78
2021/12/28 05:00:25;;;;;;;;;;;;;;;18.07;48.31;98341.41;4920401;29;19970;-78
2021/12/28 05:02:50;;;;;;;;;;;;;;;18.13;48.23;98349.97;4920528;29;19922;-85
2021/12/28 05:05:16;;;;;;;;;;;;;;;17.98;48.46;98346.66;4920449;29;19918;-79
2021/12/28 05:07:41;;;;;;;;;;;;;;;17.76;49.14;98343.50;4920440;29;19915;-78
2021/12/28 05:10:07;;;;;;;;;;;;;;;18.22;47.79;98350.22;4920252;29;19919;-78
2021/12/28 05:12:33;;;;;;;;;;;;;;;18.21;48.01;98356.94;4920083;29;20344;-78
2021/12/28 05:15:00;;;;;;;;;;;;;;;18.22;47.95;98353.78;4920298;29;19915;-78
2021/12/28 05:17:26;;;;;;;;;;;;;;;17.95;48.63;98353.06;4919216;29;19922;-78
2021/12/28 05:19:51;;;;;;;;;;;;;;;17.86;48.73;98358.34;4918494;29;20350;-79
2021/12/28 05:22:17;;;;;;;;;;;;;;;17.79;49.10;98362.00;4920008;29;19919;-79
2021/12/28 05:24:42;;;;;;;;;;;;;;;18.06;48.17;98358.38;4920169;29;20297;-79
2021/12/28 05:27:08;;;;;;;;;;;;;;;18.30;47.44;98368.25;4920059;29;20354;-79
2021/12/28 05:29:33;;;;;;;;;;;;;;;18.43;47.34;98373.94;4920271;29;19915;-78
2021/12/28 05:31:59;;;;;;;;;;;;;;;18.50;47.13;98376.56;4919934;29;19963;-79
2021/12/28 05:34:24;;;;;;;;;;;;;;;18.48;47.33;98384.50;4919992;29;19950;-79
2021/12/28 05:36:50;;;;;;;;;;;;;;;18.37;47.67;98395.00;4920213;29;19915;-78
2021/12/28 05:39:15;;;;;;;;;;;;;;;18.39;47.52;98395.34;4919976;29;19915;-78
2021/12/28 05:41:41;;;;;;;;;;;;;;;18.22;47.93;98402.75;4919826;29;19922;-78
2021/12/28 05:44:06;;;;;;;;;;;;;;;18.34;47.38;98402.13;4919762;29;19915;-84
2021/12/28 05:46:31;;;;;;;;;;;;;;;17.87;48.83;98406.84;4919728;29;19998;-84
2021/12/28 05:48:57;;;;;;;;;;;;;;;17.89;48.69;98413.50;4919532;29;19919;-79
2021/12/28 05:51:22;;;;;;;;;;;;;;;18.15;47.80;98423.00;4919576;29;19915;-78
2021/12/28 05:53:48;;;;;;;;;;;;;;;17.97;48.28;98428.78;4919609;29;19963;-78
2021/12/28 05:56:13;;;;;;;;;;;;;;;17.82;48.38;98435.72;4919570;29;20267;-77
2021/12/28 05:58:39;;;;;;;;;;;;;;;18.08;47.75;98436.91;4919520;29;19915;-77
2021/12/28 06:01:04;;;;;;;;;;;;;;;17.79;48.04;98444.06;4919456;29;19966;-76
2021/12/28 06:03:30;;;;;;;;;;;;;;;17.93;47.74;98449.38;4918371;29;20018;-77
2021/12/28 06:05:55;;;;;;;;;;;;;;;17.94;47.73;98445.41;4919390;29;19972;-83
2021/12/28 06:08:21;;;;;;;;;;;;;;;17.57;48.53;98449.84;4902378;29;19922;-77
2021/12/28 06:10:46;;;;;;;;;;;;;;;17.65;48.37;98458.81;4919241;29;19915;-83
2021/12/28 06:13:12;;;;;;;;;;;;;;;17.03;49.51;98465.50;4919025;29;19926;-76
2021/12/28 06:15:37;;;;;;;;;;;;;;;17.37;48.70;98468.25;4919133;29;20374;-77
2021/12/28 06:18:03;;;;;;;;;;;;;;;17.38;48.23;98484.44;4919129;29;19921;-82
2021/12/28 06:20:28;;;;;;;;;;;;;;;17.39;48.56;98480.47;4919136;29;20357;-76
2021/12/28 06:22:54;;;;;;;;;;;;;;;17.31;48.40;98480.97;4918985;29;19922;-76
2021/12/28 06:25:19;;;;;;;;;;;;;;;17.55;47.86;98490.91;4918911;29;20366;-76
2021/12/28 06:27:44;;;;;;;;;;;;;;;17.05;48.38;98496.22;4919270;29;20023;-76
2021/12/28 06:30:10;;;;;;;;;;;;;;;17.76;47.36;98500.94;4918919;29;20345;-77
2021/12/28 06:32:36;;;;;;;;;;;;;;;17.85;47.13;98505.94;4918880;29;19922;-77
2021/12/28 06:35:02;;;;;;;;;;;;;;;17.74;47.00;98512.38;4918749;29;19922;-76
2021/12/28 06:37:27;;;;;;;;;;;;;;;17.61;47.48;98511.34;4918770;29;19919;-78
2021/12/28 06:39:53;;;;;;;;;;;;;;;17.68;46.90;98516.78;4918729;29;19915;-76
2021/12/28 06:42:18;;;;;;;;;;;;;;;17.46;47.42;98513.50;4918732;29;19922;-76
2021/12/28 06:44:46;;;;;;;;;;;;;;;17.01;48.04;98523.88;4918672;29;20396;-77
2021/12/28 06:47:12;;;;;;;;;;;;;;;16.62;49.24;98524.97;4918574;29;20374;-77
2021/12/28 06:49:38;;;;;;;;;;;;;;;16.83;48.54;98535.06;4918515;29;19926;-77
2021/12/28 06:52:03;;;;;;;;;;;;;;;17.29;47.70;98541.28;4918588;29;19915;-77
2021/12/28 06:54:29;;;;;;;;;;;;;;;17.07;48.06;98549.78;4918443;29;19922;-81
2021/12/28 06:56:54;;;;;;;;;;;;;;;17.15;47.94;98550.50;4918359;29;19919;-76
2021/12/28 06:59:20;;;;;;;;;;;;;;;16.73;49.01;98554.47;4918258;29;19922;-82
2021/12/28 07:01:45;;;;;;;;;;;;;;;16.79;48.65;98556.38;4918278;29;19963;-77
2021/12/28 07:04:10;;;;;;;;;;;;;;;16.61;49.23;98562.00;4918278;29;19962;-76
2021/12/28 07:06:36;;;;;;;;;;;;;;;16.60;48.68;98573.44;4918243;29;19915;-76
2021/12/28 07:09:02;;;;;;;;;;;;;;;17.04;47.67;98580.97;4918121;29;19998;-77
2021/12/28 07:11:27;;;;;;;;;;;;;;;16.66;48.81;98585.59;4918190;29;20370;-80
2021/12/28 07:13:52;;;;;;;;;;;;;;;16.60;49.01;98587.22;4902427;29;19919;-77
2021/12/28 07:16:19;;;;;;;;;;;;;;;16.74;48.50;98586.34;4882434;29;19915;-76
2021/12/28 07:18:44;;;;;;;;;;;;;;;16.60;48.70;98584.47;4899122;29;19921;-77
2021/12/28 07:21:10;;;;;;;;;;;;;;;16.63;48.83;98591.94;4899176;29;20002;-76
2021/12/28 07:23:35;;;;;;;;;;;;;;;16.93;47.78;98596.84;4899031;29;19916;-76
2021/12/28 07:26:01;;;;;;;;;;;;;;;16.87;47.82;98610.28;4899093;29;19916;-76
2021/12/28 07:28:26;;;;;;;;;;;;;;;17.08;47.37;98614.84;4898875;29;19922;-76
2021/12/28 07:30:53;;;;;;;;;;;;;;;16.78;47.82;98620.22;4897659;29;19941;-76
2021/12/28 07:33:18;;;;;;;;;;;;;;;16.40;48.59;98628.31;4898924;29;20285;-76
2021/12/28 07:35:44;;;;;;;;;;;;;;;16.81;47.66;98645.00;4898847;29;20002;-76
2021/12/28 07:38:09;;;;;;;;;;;;;;;17.04;46.98;98660.19;4898654;29;19915;-76
2021/12/28 07:40:35;;;;;;;;;;;;;;;16.61;48.19;98660.47;4898735;29;20246;-77
2021/12/28 07:43:00;;;;;;;;;;;;;;;16.90;47.39;98667.38;4898702;29;19964;-77
2021/12/28 07:45:26;;;;;;;;;;;;;;;16.17;48.92;98666.59;4881880;29;19915;-76
2021/12/28 07:47:51;;;;;;;;;;;;;;;16.55;48.18;98676.66;4898678;29;19915;-76
2021/12/28 07:50:17;;;;;;;;;;;;;;;16.80;47.66;98684.03;4898520;29;19919;-76
2021/12/28 07:52:44;;;;;;;;;;;;;;;16.72;47.72;98688.81;4898531;29;19923;-76
2021/12/28 07:55:10;;;;;;;;;;;;;;;16.92;47.28;98702.84;4898562;29;20426;-76
2021/12/28 07:57:36;;;;;;;;;;;;;;;17.09;46.79;98706.69;4898435;29;19971;-76
2021/12/28 08:00:03;;;;;;;;;;;;;;;16.98;47.09;98715.00;4898275;29;19916;-76
2021/12/28 08:02:29;;;;;;;;;;;;;;;16.73;47.60;98711.66;4898365;29;19958;-77
2021/12/28 08:04:54;;;;;;;;;;;;;;;16.88;47.15;98724.16;4898378;29;19923;-76
2021/12/28 08:07:20;;;;;;;;;;;;;;;16.21;48.57;98739.03;4898573;29;19916;-77
2021/12/28 08:09:45;;;;;;;;;;;;;;;16.18;48.93;98745.34;4898350;29;20450;-77
2021/12/28 08:12:11;;;;;;;;;;;;;;;16.59;47.86;98740.81;4898091;29;19915;-77
2021/12/28 08:14:36;;;;;;;;;;;;;;;16.22;48.63;98755.16;4898210;29;19919;-79
2021/12/28 08:17:01;;;;;;;;;;;;;;;16.50;47.89;98770.81;4898147;29;20435;-76
2021/12/28 08:19:27;;;;;;;;;;;;;;;16.17;48.42;98785.06;4898099;29;19973;-76
2021/12/28 08:21:52;;;;;;;;;;;;;;;16.53;47.80;98794.81;4898088;29;19915;-76
2021/12/28 08:24:18;;;;;;;;;;;;;;;16.74;47.29;98802.25;4898182;29;20299;-76
2021/12/28 08:26:44;;;;;;;;;;;;;;;17.00;46.50;98809.19;4897746;29;20010;-80
2021/12/28 08:29:09;;;;;;;;;;;;;;;16.97;46.48;98812.75;4898060;29;20278;-76
2021/12/28 08:31:35;;;;;;;;;;;;;;;17.08;46.24;98821.00;4881184;29;19941;-76
2021/12/28 08:34:01;;;;;;;;;;;;;;;17.26;45.86;98827.19;4898023;29;19923;-76
2021/12/28 08:36:26;;;;;;;;;;;;;;;17.19;46.10;98830.00;4897777;29;19915;-79
2021/12/28 08:38:51;;;;;;;;;;;;;;;17.08;46.11;98843.84;4897901;29;20283;-83
2021/12/28 08:41:17;;;;;;;;;;;;;;;16.94;46.45;98854.97;4897818;29;19919;-79
2021/12/28 08:43:43;;;;;;;;;;;;;;;16.91;46.44;98856.53;4897932;29;19919;-79
2021/12/28 08:46:08;;;;;;;;;;;;;;;17.05;45.97;98860.41;4897840;29;20019;-78
2021/12/28 08:48:34;;;;;;;;;;;;;;;16.88;46.41;98864.84;4897801;29;20408;-78
2021/12/28 08:50:59;;;;;;;;;;;;;;;16.33;47.55;98868.91;4897814;29;19915;-78
2021/12/28 08:53:26;;;;;;;;;;;;;;;16.82;46.29;98882.97;4897934;29;20280;-78
2021/12/28 08:55:51;;;;;;;;;;;;;;;16.94;45.80;98892.81;4897762;29;20318;-76
2021/12/28 08:58:17;;;;;;;;;;;;;;;16.35;47.12;98902.38;4897823;29;19920;-74
2021/12/28 09:00:42;;;;;;;;;;;;;;;16.71;46.48;98904.31;4897887;29;19919;-74
2021/12/28 09:03:07;;;;;;;;;;;;;;;16.86;46.08;98911.34;4897673;29;20385;-73
2021/12/28 09:05:34;;;;;;;;;;;;;;;16.84;45.83;98916.47;4897708;29;19923;-77
2021/12/28 09:08:01;;;;;;;;;;;;;;;16.91;45.99;98933.00;4897589;29;19923;-78
2021/12/28 09:10:26;;;;;;;;;;;;;;;16.88;45.83;98942.06;4897671;29;19915;-78
2021/12/28 09:12:55;;;;;;;;;;;;;;;16.91;45.77;98944.03;4897474;29;19926;-74
2021/12/28 09:15:20;;;;;;;;;;;;;;;17.05;45.42;98949.50;4880796;29;19919;-83
2021/12/28 09:17:46;;;;;;;;;;;;;;;16.64;46.46;98958.25;4923929;29;20341;-82
2021/12/28 09:20:16;;;;;;;;;;;;;;;16.96;45.92;98964.91;4917470;29;19915;-74
2021/12/28 09:22:42;;;;;;;;;;;;;;;16.78;46.42;98987.03;4915804;29;20383;-83
2021/12/28 09:25:08;;;;;;;;;;;;;;;16.79;46.14;98989.38;4919903;29;19965;-75
2021/12/28 09:27:34;;;;;;;;;;;;;;;16.43;47.61;99002.38;4919185;29;19915;-78
2021/12/28 09:29:59;;;;;;;;;;;;;;;16.61;47.01;99003.16;4918145;29;19915;-82
2021/12/28 09:32:24;;;;;;;;;;;;;;;16.45;47.70;99018.53;4918148;29;20275;-75
2021/12/28 09:34:51;;;;;;;;;;;;;;;16.37;47.86;99021.28;4924713;29;19914;-81
2021/12/28 09:37:17;;;;;;;;;;;;;;;16.25;47.95;99023.66;4926733;29;19923;-79
2021/12/28 09:39:42;;;;;;;;;;;;;;;16.60;47.09;99033.88;4927171;29;20392;-83
2021/12/28 09:42:08;;;;;;;;;;;;;;;17.07;46.13;99046.44;4928494;29;19922;-75
2021/12/28 09:44:34;;;;;;;;;;;;;;;16.80;46.64;99057.16;4928601;29;20430;-76
2021/12/28 09:47:01;;;;;;;;;;;;;;;17.13;45.91;99058.66;4926737;29;19915;-74
2021/12/28 09:49:28;;;;;;;;;;;;;;;17.19;45.73;99065.34;4926954;29;19963;-74
2021/12/28 09:51:54;;;;;;;;;;;;;;;17.18;45.69;99063.78;4927367;29;19970;-76
2021/12/28 09:54:22;;;;;;;;;;;;;;;17.31;45.36;99079.94;4928758;29;19919;-76
2021/12/28 09:56:47;;;;;;;;;;;;;;;17.42;45.10;99081.47;4927470;29;20013;-75
2021/12/28 09:59:13;;;;;;;;;;;;;;;17.61;44.68;99096.03;4927172;29;20029;-75
2021/12/28 10:01:38;;;;;;;;;;;;;;;17.52;44.65;99109.44;4921552;29;19952;-83
2021/12/28 10:04:03;;;;;;;;;;;;;;;17.51;44.80;99113.41;4922285;29;20342;-80
2021/12/28 10:06:29;;;;;;;;;;;;;;;17.50;44.72;99123.66;4922725;29;19914;-80
2021/12/28 10:09:05;;;;;;;;;;;;;;;17.40;44.47;99125.25;4921375;29;19926;-75
2021/12/28 10:11:31;;;;;;;;;;;;;;;17.52;44.58;99126.00;4919545;29;19911;-75
2021/12/28 10:14:09;;;;;;;;;;;;;;;17.41;44.78;99148.13;4934373;29;19962;-78
2021/12/28 10:16:42;;;;;;;;;;;;;;;17.53;44.70;99158.75;4937079;29;19961;-78
2021/12/28 10:19:26;;;;;;;;;;;;;;;17.44;44.58;99163.91;4935169;29;19923;-77
2021/12/28 10:21:51;;;;;;;;;;;;;;;17.39;44.70;99173.38;4935652;29;19915;-75
2021/12/28 10:24:29;;;;;;;;;;;;;;;17.50;44.74;99169.81;4937146;29;19918;-75
2021/12/28 10:27:10;;;;;;;;;;;;;;;17.57;44.61;99173.34;4937238;29;19934;-80
2021/12/28 10:29:35;;;;;;;;;;;;;;;17.64;44.51;99186.34;4935992;29;19914;-74
2021/12/28 10:32:19;;;;;;;;;;;;;;;17.62;44.57;99184.00;4936808;29;19922;-74
2021/12/28 10:34:49;;;;;;;;;;;;;;;17.58;44.67;99201.75;4934911;29;19937;-75
2021/12/28 10:37:18;;;;;;;;;;;;;;;17.45;44.97;99215.16;4936809;29;19942;-75
2021/12/28 10:39:45;;;;;;;;;;;;;;;17.51;44.80;99230.16;4934336;29;19919;-75
2021/12/28 10:42:10;;;;;;;;;;;;;;;17.53;44.53;99227.78;4936801;29;20407;-75
2021/12/28 10:44:54;;;;;;;;;;;;;;;17.58;44.85;99230.16;4936634;29;19940;-74
2021/12/28 10:47:23;;;;;;;;;;;;;;;17.69;44.71;99247.50;4936135;29;19915;-80
2021/12/28 10:49:49;;;;;;;;;;;;;;;17.73;44.26;99236.47;4936729;29;19922;-74
2021/12/28 10:52:21;;;;;;;;;;;;;;;17.73;44.52;99242.78;4937464;29;20398;-76
2021/12/28 10:54:46;;;;;;;;;;;;;;;17.64;44.84;99247.91;4937624;29;19966;-82
2021/12/28 10:57:12;;;;;;;;;;;;;;;17.62;44.74;99255.03;4937377;29;20485;-75
2021/12/28 10:59:37;;;;;;;;;;;;;;;17.69;44.56;99255.81;4937148;29;19915;-77
2021/12/28 11:02:04;;;;;;;;;;;;;;;17.87;44.30;99275.13;4935862;29;19921;-75
2021/12/28 11:04:34;;;;;;;;;;;;;;;17.92;44.23;99276.72;4935435;29;19961;-75
2021/12/28 11:07:02;;;;;;;;;;;;;;;17.85;44.54;99282.25;4938555;29;20009;-75
2021/12/28 11:09:28;;;;;;;;;;;;;;;17.85;44.67;99285.00;4950266;29;19918;-74
2021/12/28 11:11:55;;;;;;;;;;;;;;;17.86;44.64;99283.81;4956168;29;19921;-74
2021/12/28 11:14:21;;;;;;;;;;;;;;;17.93;44.44;99290.13;4955740;29;19918;-74
2021/12/28 11:16:59;;;;;;;;;;;;;;;17.87;44.60;99290.94;4956285;29;19922;-74
2021/12/28 11:19:26;;;;;;;;;;;;;;;17.97;44.41;99287.34;4956024;29;19914;-75
2021/12/28 11:21:56;;;;;;;;;;;;;;;18.02;44.31;99298.78;4955989;29;19918;-81
2021/12/28 11:24:21;;;;;;;;;;;;;;;18.00;44.57;99314.19;4956022;29;19973;-75
2021/12/28 11:26:49;;;;;;;;;;;;;;;18.14;44.35;99319.72;4955956;29;19918;-75
2021/12/28 11:29:16;;;;;;;;;;;;;;;18.11;44.43;99339.84;4956022;29;19918;-75
2021/12/28 11:31:44;;;;;;;;;;;;;;;18.01;44.50;99319.31;4954465;29;20270;-82
2021/12/28 11:34:11;;;;;;;;;;;;;;;18.05;44.42;99335.88;4955902;29;19918;-74
2021/12/28 11:36:45;;;;;;;;;;;;;;;18.05;44.56;99330.34;4955704;29;19917;-74
2021/12/28 11:39:13;;;;;;;;;;;;;;;18.23;44.26;99344.97;4955925;29;19914;-74
2021/12/28 11:41:39;;;;;;;;;;;;;;;18.17;44.34;99363.13;4955644;29;20009;-74
2021/12/28 11:44:05;;;;;;;;;;;;;;;18.23;44.31;99375.38;4955506;29;19965;-75
2021/12/28 11:46:30;;;;;;;;;;;;;;;18.29;43.96;99373.78;4955579;29;19938;-79
2021/12/28 11:48:56;;;;;;;;;;;;;;;18.44;44.00;99373.72;4955639;29;19915;-75
2021/12/28 11:51:22;;;;;;;;;;;;;;;18.40;43.93;99372.97;4955835;29;19915;-74
2021/12/28 11:53:48;;;;;;;;;;;;;;;18.32;44.14;99371.41;4955383;29;19918;-79
2021/12/28 11:56:16;;;;;;;;;;;;;;;18.13;44.28;99370.63;4955491;29;19914;-79
2021/12/28 11:58:51;;;;;;;;;;;;;;;18.34;44.16;99380.06;4955373;29;19921;-80
2021/12/28 12:01:37;;;;;;;;;;;;;;;18.28;44.33;99377.72;4937310;29;20338;-81
2021/12/28 12:04:03;;;;;;;;;;;;;;;18.38;44.05;99386.41;4937582;29;20371;-74
2021/12/28 12:06:47;;;;;;;;;;;;;;;18.35;44.04;99395.47;4955285;29;19949;-75
2021/12/28 12:09:12;;;;;;;;;;;;;;;18.46;43.69;99408.13;4955295;29;20004;-75
2021/12/28 12:11:56;;;;;;;;;;;;;;;18.41;43.66;99402.19;4937961;29;20071;-74
2021/12/28 12:14:22;;;;;;;;;;;;;;;18.41;43.86;99396.66;4955125;29;19918;-75
2021/12/28 12:16:47;;;;;;;;;;;;;;;18.55;43.56;99391.88;4955141;29;19976;-73
2021/12/28 12:19:33;;;;;;;;;;;;;;;18.50;43.72;99399.78;4955073;29;20047;-80
2021/12/28 12:22:17;;;;;;;;;;;;;;;18.36;43.68;99399.81;4955028;29;19951;-79
2021/12/28 12:24:51;;;;;;;;;;;;;;;18.41;44.16;99421.53;4954961;29;19922;-74
2021/12/28 12:27:35;;;;;;;;;;;;;;;18.20;44.14;99423.13;4955069;29;19914;-73
2021/12/28 12:30:00;;;;;;;;;;;;;;;18.36;44.15;99433.00;4954903;29;19915;-73
2021/12/28 12:32:44;;;;;;;;;;;;;;;18.34;44.09;99433.41;4954906;29;19969;-75
2021/12/28 12:35:28;;;;;;;;;;;;;;;18.19;44.61;99435.38;4954963;29;19915;-73
2021/12/28 12:37:54;;;;;;;;;;;;;;;18.38;43.84;99434.19;4954843;29;19918;-73
2021/12/28 12:40:19;;;;;;;;;;;;;;;18.47;43.91;99428.25;4955124;29;19923;-76
2021/12/28 12:43:05;;;;;;;;;;;;;;;18.53;43.58;99432.22;4955212;29;20333;-74
2021/12/28 12:45:49;;;;;;;;;;;;;;;18.51;43.51;99437.31;4954774;29;19921;-79